createdAt,value
2023-09-23T00:02:44.973Z,99685.56
2023-09-23T00:05:11.681Z,99679.00
2023-09-23T00:07:39.161Z,99684.72
2023-09-23T00:10:06.519Z,99684.31
2023-09-23T00:12:33.029Z,99666.06
2023-09-23T00:17:44.187Z,99662.09
2023-09-23T00:20:10.777Z,99649.75
2023-09-23T00:22:38.186Z,99639.97
2023-09-23T00:25:05.502Z,99653.53
2023-09-23T00:27:32.819Z,99644.41
2023-09-23T00:32:43.999Z,99654.88
2023-09-23T00:35:11.324Z,99648.28
2023-09-23T00:37:38.637Z,99644.25
2023-09-23T00:40:05.200Z,99652.09
2023-09-23T00:42:32.647Z,99662.72
2023-09-23T00:47:44.650Z,99649.81
2023-09-23T00:50:11.210Z,99658.69
2023-09-23T00:52:37.847Z,99663.59
2023-09-23T00:55:05.543Z,99654.88
2023-09-23T00:57:32.841Z,99657.16
2023-09-23T01:02:44.559Z,99662.97
2023-09-23T01:05:11.157Z,99665.84
2023-09-23T01:07:37.749Z,99664.03
2023-09-23T01:10:05.155Z,99662.63
2023-09-23T01:12:31.633Z,99656.19
2023-09-23T01:17:42.963Z,99666.63
2023-09-23T01:20:09.500Z,99664.09
2023-09-23T01:22:36.927Z,99662.88
2023-09-23T01:25:04.271Z,99664.13
2023-09-23T01:27:30.741Z,99667.97
2023-09-23T01:32:43.021Z,99678.16
2023-09-23T01:35:10.481Z,99686.34
2023-09-23T01:37:38.107Z,99676.75
2023-09-23T01:40:05.447Z,99677.47
2023-09-23T01:42:31.944Z,99684.16
2023-09-23T01:44:59.276Z,99682.78
2023-09-23T01:47:27.818Z,99689.50
2023-09-23T01:49:54.432Z,99679.72
2023-09-23T01:52:21.014Z,99683.03
2023-09-23T01:54:47.498Z,99675.56
2023-09-23T01:57:14.803Z,99676.41
2023-09-23T01:59:41.292Z,99683.38
2023-09-23T02:02:07.889Z,99672.91
2023-09-23T02:04:35.281Z,99671.72
2023-09-23T02:07:01.781Z,99673.19
2023-09-23T02:09:28.353Z,99670.47
2023-09-23T02:11:55.788Z,99672.31
2023-09-23T02:14:23.197Z,99667.63
2023-09-23T02:16:49.752Z,99682.44
2023-09-23T02:19:17.164Z,99664.56
2023-09-23T02:21:43.676Z,99668.66
2023-09-23T02:24:10.189Z,99664.91
2023-09-23T02:26:37.640Z,99657.50
2023-09-23T02:29:05.138Z,99659.06
2023-09-23T02:31:31.684Z,99669.84
2023-09-23T02:33:58.201Z,99666.63
2023-09-23T02:36:25.644Z,99664.91
2023-09-23T02:38:52.217Z,99656.72
2023-09-23T02:41:18.771Z,99657.75
2023-09-23T02:43:45.380Z,99663.88
2023-09-23T02:46:12.010Z,99663.25
2023-09-23T02:48:38.530Z,99664.41
2023-09-23T02:51:05.090Z,99665.69
2023-09-23T02:53:32.550Z,99682.31
2023-09-23T02:55:59.070Z,99681.91
2023-09-23T02:58:26.549Z,99677.28
2023-09-23T03:00:53.063Z,99684.88
2023-09-23T03:06:04.688Z,99681.91
2023-09-23T03:08:32.198Z,99685.47
2023-09-23T03:10:58.741Z,99687.88
2023-09-23T03:13:25.298Z,99685.19
2023-09-23T03:15:51.853Z,99681.72
2023-09-23T03:21:04.118Z,99689.38
2023-09-23T03:23:30.613Z,99684.63
2023-09-23T03:25:57.187Z,99688.50
2023-09-23T03:28:23.743Z,99693.91
2023-09-23T03:30:50.450Z,99685.31
2023-09-23T03:36:02.494Z,99698.66
2023-09-23T03:38:29.603Z,99703.75
2023-09-23T03:40:56.483Z,99703.00
2023-09-23T03:43:24.002Z,99709.44
2023-09-23T03:45:51.651Z,99714.50
2023-09-23T03:51:02.925Z,99714.63
2023-09-23T03:53:29.443Z,99712.84
2023-09-23T03:55:57.184Z,99716.75
2023-09-23T03:58:23.877Z,99716.50
2023-09-23T04:00:50.499Z,99718.50
2023-09-23T04:06:01.851Z,99722.38
2023-09-23T04:08:28.375Z,99714.81
2023-09-23T04:10:54.957Z,99721.16
2023-09-23T04:13:21.520Z,99724.84
2023-09-23T04:15:48.084Z,99730.78
2023-09-23T04:21:00.595Z,99749.47
2023-09-23T04:23:27.192Z,99752.75
2023-09-23T04:25:53.921Z,99752.25
2023-09-23T04:28:20.606Z,99752.06
2023-09-23T04:30:48.080Z,99759.41
2023-09-23T04:36:00.298Z,99758.25
2023-09-23T04:38:27.786Z,99762.88
2023-09-23T04:40:54.506Z,99760.16
2023-09-23T04:43:21.330Z,99763.81
2023-09-23T04:45:48.020Z,99770.69
2023-09-23T04:51:00.441Z,99776.66
2023-09-23T04:53:27.920Z,99784.28
2023-09-23T04:55:55.458Z,99795.31
2023-09-23T04:58:22.952Z,99793.75
2023-09-23T05:00:49.480Z,99799.41
2023-09-23T05:05:59.985Z,99815.84
2023-09-23T05:08:26.613Z,99814.56
2023-09-23T05:10:53.256Z,99836.00
2023-09-23T05:13:20.708Z,99834.63
2023-09-23T05:15:48.245Z,99843.88
2023-09-23T05:21:00.830Z,99863.56
2023-09-23T05:23:28.545Z,99871.50
2023-09-23T05:25:55.346Z,99865.41
2023-09-23T05:28:22.174Z,99858.22
2023-09-23T05:30:48.764Z,99861.81
2023-09-23T05:36:01.096Z,99856.31
2023-09-23T05:38:28.594Z,99862.69
2023-09-23T05:40:56.100Z,99858.16
2023-09-23T05:43:22.683Z,99860.00
2023-09-23T05:45:49.206Z,99863.97
2023-09-23T05:51:00.568Z,99876.44
2023-09-23T05:53:28.030Z,99874.63
2023-09-23T05:55:54.630Z,99876.56
2023-09-23T05:58:22.094Z,99886.94
2023-09-23T06:00:49.478Z,99902.31
2023-09-23T06:06:00.152Z,99913.63
2023-09-23T06:08:27.617Z,99924.28
2023-09-23T06:10:54.180Z,99923.28
2023-09-23T06:13:20.672Z,99919.69
2023-09-23T06:15:47.162Z,99931.56
2023-09-23T06:18:14.696Z,99939.59
2023-09-23T06:20:42.129Z,99947.28
2023-09-23T06:23:10.643Z,99955.97
2023-09-23T06:25:37.234Z,99963.06
2023-09-23T06:28:03.780Z,99969.69
2023-09-23T06:30:30.284Z,99965.88
2023-09-23T06:32:56.811Z,99950.09
2023-09-23T06:35:24.286Z,99948.66
2023-09-23T06:37:50.880Z,99957.53
2023-09-23T06:40:18.307Z,99970.19
2023-09-23T06:42:44.852Z,99981.56
2023-09-23T06:45:11.353Z,99991.03
2023-09-23T06:47:38.926Z,99974.81
2023-09-23T06:50:05.567Z,99997.34
2023-09-23T06:52:32.137Z,100002.72
2023-09-23T06:54:59.467Z,100012.56
2023-09-23T06:57:27.070Z,100016.50
2023-09-23T06:59:54.386Z,100018.47
2023-09-23T07:02:21.085Z,100024.19
2023-09-23T07:04:48.697Z,100026.94
2023-09-23T07:07:15.272Z,100042.94
2023-09-23T07:09:41.819Z,100044.97
2023-09-23T07:12:08.322Z,100043.28
2023-09-23T07:14:35.631Z,100059.06
2023-09-23T07:17:02.959Z,100061.38
2023-09-23T07:19:29.480Z,100053.28
2023-09-23T07:21:58.779Z,100059.47
2023-09-23T07:24:26.211Z,100073.94
2023-09-23T07:26:52.601Z,100077.34
2023-09-23T07:29:19.059Z,100089.38
2023-09-23T07:31:45.515Z,100099.16
2023-09-23T07:34:12.824Z,100095.44
2023-09-23T07:39:23.406Z,100088.47
2023-09-23T07:41:49.851Z,100086.06
2023-09-23T07:44:16.269Z,100092.75
2023-09-23T07:46:42.705Z,100092.06
2023-09-23T07:49:10.017Z,100090.66
2023-09-23T07:54:22.939Z,100075.47
2023-09-23T07:56:49.605Z,100080.41
2023-09-23T07:59:16.045Z,100089.06
2023-09-23T08:01:42.539Z,100093.50
2023-09-23T08:04:08.996Z,100090.09
2023-09-23T08:09:29.354Z,100106.47
2023-09-23T08:11:55.783Z,100116.03
2023-09-23T08:14:22.200Z,100115.44
2023-09-23T08:16:48.595Z,100107.47
2023-09-23T08:19:16.271Z,100122.28
2023-09-23T08:24:26.548Z,100129.63
2023-09-23T08:26:52.973Z,100137.09
2023-09-23T08:29:19.551Z,100137.69
2023-09-23T08:31:46.936Z,100138.09
2023-09-23T08:34:13.357Z,100121.50
2023-09-23T08:39:23.968Z,100146.38
2023-09-23T08:41:50.382Z,100163.06
2023-09-23T08:44:16.924Z,100168.56
2023-09-23T08:46:43.347Z,100159.63
2023-09-23T08:49:09.726Z,100170.44
2023-09-23T08:54:19.990Z,100173.66
2023-09-23T08:56:46.460Z,100182.94
2023-09-23T08:59:12.909Z,100178.50
2023-09-23T09:01:39.416Z,100177.28
2023-09-23T09:04:05.889Z,100173.66
2023-09-23T09:09:16.400Z,100163.66
2023-09-23T09:11:42.918Z,100161.69
2023-09-23T09:14:10.280Z,100164.47
2023-09-23T09:16:36.711Z,100156.88
2023-09-23T09:19:03.141Z,100168.50
2023-09-23T09:24:13.334Z,100172.34
2023-09-23T09:26:39.797Z,100175.22
2023-09-23T09:29:06.276Z,100185.38
2023-09-23T09:31:32.826Z,100175.31
2023-09-23T09:33:59.277Z,100188.91
2023-09-23T09:39:10.442Z,100183.75
2023-09-23T09:41:36.949Z,100189.25
2023-09-23T09:44:04.371Z,100197.50
2023-09-23T09:46:31.886Z,100201.16
2023-09-23T09:48:58.434Z,100210.56
2023-09-23T09:54:09.133Z,100213.91
2023-09-23T09:56:38.349Z,100217.94
2023-09-23T09:59:04.889Z,100227.63
2023-09-23T10:01:31.399Z,100237.16
2023-09-23T10:04:00.052Z,100236.72
2023-09-23T10:06:26.501Z,100231.50
2023-09-23T10:08:58.824Z,100234.34
2023-09-23T10:11:25.649Z,100248.06
2023-09-23T10:13:52.185Z,100254.75
2023-09-23T10:16:19.717Z,100253.09
2023-09-23T10:18:46.461Z,100255.59
2023-09-23T10:21:13.133Z,100259.84
2023-09-23T10:23:39.606Z,100252.28
2023-09-23T10:26:06.099Z,100253.16
2023-09-23T10:28:32.519Z,100254.75
2023-09-23T10:30:58.947Z,100248.78
2023-09-23T10:33:25.442Z,100249.84
2023-09-23T10:35:51.889Z,100252.22
2023-09-23T10:38:18.364Z,100243.03
2023-09-23T10:40:44.848Z,100243.81
2023-09-23T10:43:12.154Z,100247.88
2023-09-23T10:45:38.792Z,100247.88
2023-09-23T10:48:05.380Z,100246.63
2023-09-23T10:50:31.899Z,100249.78
2023-09-23T10:52:59.319Z,100257.78
2023-09-23T10:55:25.793Z,100265.44
2023-09-23T10:57:52.233Z,100272.94
2023-09-23T11:00:19.638Z,100271.31
2023-09-23T11:02:46.252Z,100274.91
2023-09-23T11:05:12.825Z,100274.13
2023-09-23T11:07:39.433Z,100272.53
2023-09-23T11:10:05.938Z,100272.16
2023-09-23T11:12:32.348Z,100277.75
2023-09-23T11:14:58.790Z,100273.72
2023-09-23T11:17:25.353Z,100283.69
2023-09-23T11:19:51.825Z,100280.53
2023-09-23T11:22:19.111Z,100279.81
2023-09-23T11:27:29.531Z,100291.56
2023-09-23T11:29:56.019Z,100289.44
2023-09-23T11:32:22.545Z,100295.25
2023-09-23T11:34:49.038Z,100296.97
2023-09-23T11:37:15.458Z,100289.31
2023-09-23T11:42:25.702Z,100307.72
2023-09-23T11:44:52.214Z,100311.38
2023-09-23T11:47:18.697Z,100318.22
2023-09-23T11:49:45.232Z,100312.06
2023-09-23T11:52:12.520Z,100320.91
2023-09-23T11:57:23.108Z,100317.50
2023-09-23T11:59:49.591Z,100300.72
2023-09-23T12:02:16.075Z,100291.13
2023-09-23T12:04:42.650Z,100294.28
2023-09-23T12:07:09.289Z,100284.28
2023-09-23T12:12:20.709Z,100282.34
2023-09-23T12:14:47.148Z,100297.81
2023-09-23T12:17:13.551Z,100290.72
2023-09-23T12:19:40.000Z,100286.72
2023-09-23T12:22:06.422Z,100286.66
2023-09-23T12:27:16.645Z,100290.28
2023-09-23T12:29:43.076Z,100290.41
2023-09-23T12:32:10.429Z,100287.13
2023-09-23T12:34:36.914Z,100288.22
2023-09-23T12:37:03.483Z,100297.06
2023-09-23T12:42:13.797Z,100312.56
2023-09-23T12:44:40.259Z,100319.72
2023-09-23T12:47:06.735Z,100321.72
2023-09-23T12:49:33.168Z,100319.34
2023-09-23T12:51:59.602Z,100325.72
2023-09-23T12:57:10.561Z,100320.94
2023-09-23T12:59:37.057Z,100334.75
2023-09-23T13:02:03.510Z,100333.91
2023-09-23T13:04:31.270Z,100338.56
2023-09-23T13:06:57.698Z,100340.88
2023-09-23T13:12:07.847Z,100340.88
2023-09-23T13:14:35.187Z,100340.16
2023-09-23T13:17:01.675Z,100347.72
2023-09-23T13:19:30.908Z,100357.00
2023-09-23T13:21:57.425Z,100349.44
2023-09-23T13:27:09.452Z,100366.63
2023-09-23T13:29:35.912Z,100353.75
2023-09-23T13:32:02.496Z,100359.84
2023-09-23T13:34:29.823Z,100354.94
2023-09-23T13:36:56.285Z,100341.72
2023-09-23T13:42:07.372Z,100337.69
2023-09-23T13:44:34.667Z,100327.41
2023-09-23T13:47:01.204Z,100321.72
2023-09-23T13:49:28.555Z,100324.88
2023-09-23T13:51:55.839Z,100315.81
2023-09-23T13:57:16.955Z,100315.31
2023-09-23T13:59:43.535Z,100306.50
2023-09-23T14:02:10.105Z,100315.66
2023-09-23T14:04:36.534Z,100320.63
2023-09-23T14:07:05.814Z,100311.72
2023-09-23T14:12:17.292Z,100310.63
2023-09-23T14:14:44.631Z,100319.13
2023-09-23T14:17:13.881Z,100323.22
2023-09-23T14:19:40.386Z,100318.53
2023-09-23T14:22:06.836Z,100323.78
2023-09-23T14:27:28.737Z,100344.00
2023-09-23T14:29:55.322Z,100348.16
2023-09-23T14:32:22.687Z,100349.94
2023-09-23T14:34:49.156Z,100352.38
2023-09-23T14:39:42.843Z,100368.47
2023-09-23T14:42:09.265Z,100362.09
2023-09-23T14:44:36.584Z,100360.50
2023-09-23T14:47:03.037Z,100369.31
2023-09-23T14:49:29.499Z,100378.09
2023-09-23T14:51:55.913Z,100377.53
2023-09-23T14:54:22.357Z,100375.13
2023-09-23T14:56:48.802Z,100374.56
2023-09-23T14:59:15.270Z,100368.50
2023-09-23T15:01:41.741Z,100370.91
2023-09-23T15:04:08.317Z,100368.97
2023-09-23T15:06:34.771Z,100368.50
2023-09-23T15:09:02.131Z,100380.50
2023-09-23T15:11:29.215Z,100368.69
2023-09-23T15:13:56.706Z,100369.06
2023-09-23T15:16:24.114Z,100372.66
2023-09-23T15:18:50.682Z,100365.84
2023-09-23T15:21:17.969Z,100367.47
2023-09-23T15:23:44.449Z,100368.78
2023-09-23T15:26:11.766Z,100368.41
2023-09-23T15:28:38.186Z,100374.06
2023-09-23T15:31:04.594Z,100387.97
2023-09-23T15:33:31.055Z,100397.13
2023-09-23T15:35:57.696Z,100397.13
2023-09-23T15:38:24.186Z,100401.47
2023-09-23T15:40:50.625Z,100407.84
2023-09-23T15:43:17.944Z,100409.41
2023-09-23T15:45:45.256Z,100412.28
2023-09-23T15:48:12.455Z,100436.13
2023-09-23T15:50:39.024Z,100445.66
2023-09-23T15:53:05.585Z,100463.09
2023-09-23T15:55:32.393Z,100455.53
2023-09-23T16:00:42.588Z,100467.84
2023-09-23T16:03:09.206Z,100467.91
2023-09-23T16:05:35.798Z,100474.25
2023-09-23T16:08:02.220Z,100469.91
2023-09-23T16:10:29.829Z,100469.91
2023-09-23T16:15:40.338Z,100472.31
2023-09-23T16:18:06.887Z,100477.50
2023-09-23T16:20:33.371Z,100481.88
2023-09-23T16:22:59.839Z,100491.41
2023-09-23T16:25:26.247Z,100497.00
2023-09-23T16:30:36.366Z,100507.31
2023-09-23T16:33:02.837Z,100508.81
2023-09-23T16:35:29.308Z,100512.03
2023-09-23T16:37:55.730Z,100524.75
2023-09-23T16:40:22.200Z,100528.78
2023-09-23T16:45:42.548Z,100518.75
2023-09-23T16:48:11.876Z,100514.69
2023-09-23T16:50:38.472Z,100510.81
2023-09-23T16:53:05.176Z,100517.56
2023-09-23T16:55:31.748Z,100521.97
2023-09-23T17:00:43.096Z,100528.69
2023-09-23T17:03:10.628Z,100539.75
2023-09-23T17:05:37.227Z,100544.28
2023-09-23T17:08:03.660Z,100543.72
2023-09-23T17:10:30.076Z,100542.16
2023-09-23T17:15:50.208Z,100542.88
2023-09-23T17:18:17.955Z,100542.16
2023-09-23T17:20:45.287Z,100553.34
2023-09-23T17:23:12.731Z,100549.69
2023-09-23T17:25:39.292Z,100546.88
2023-09-23T17:30:50.386Z,100540.94
2023-09-23T17:33:16.953Z,100546.25
2023-09-23T17:35:43.595Z,100551.34
2023-09-23T17:38:11.020Z,100554.13
2023-09-23T17:40:37.469Z,100565.22
2023-09-23T17:45:59.830Z,100561.72
2023-09-23T17:48:26.345Z,100574.84
2023-09-23T17:50:52.839Z,100566.00
2023-09-23T17:53:19.261Z,100568.75
2023-09-23T17:55:45.691Z,100575.91
2023-09-23T18:00:56.371Z,100583.53
2023-09-23T18:03:23.074Z,100583.53
2023-09-23T18:05:51.787Z,100584.00
2023-09-23T18:08:20.325Z,100580.38
2023-09-23T18:10:46.975Z,100590.28
2023-09-23T18:15:57.626Z,100593.00
2023-09-23T18:18:24.308Z,100588.66
2023-09-23T18:20:53.521Z,100582.72
2023-09-23T18:23:21.887Z,100579.91
2023-09-23T18:25:49.251Z,100584.66
2023-09-23T18:30:59.912Z,100601.81
2023-09-23T18:33:28.401Z,100615.69
2023-09-23T18:35:54.933Z,100607.28
2023-09-23T18:38:24.245Z,100609.22
2023-09-23T18:40:51.751Z,100611.56
2023-09-23T18:46:04.073Z,100630.00
2023-09-23T18:48:33.065Z,100624.81
2023-09-23T18:51:00.771Z,100626.38
2023-09-23T18:53:27.258Z,100633.94
2023-09-23T18:55:53.737Z,100640.28
2023-09-23T19:01:05.244Z,100640.69
2023-09-23T19:03:33.836Z,100646.28
2023-09-23T19:06:00.503Z,100653.44
2023-09-23T19:08:27.037Z,100653.81
2023-09-23T19:10:53.552Z,100648.28
2023-09-23T19:16:05.069Z,100649.81
2023-09-23T19:18:34.388Z,100647.03
2023-09-23T19:21:00.924Z,100654.16
2023-09-23T19:23:29.298Z,100657.38
2023-09-23T19:25:55.832Z,100657.38
2023-09-23T19:31:07.248Z,100678.94
2023-09-23T19:33:33.893Z,100683.75
2023-09-23T19:36:01.259Z,100682.94
2023-09-23T19:38:27.789Z,100698.47
2023-09-23T19:40:54.340Z,100696.81
2023-09-23T19:43:21.647Z,100703.97
2023-09-23T19:45:50.055Z,100705.13
2023-09-23T19:48:17.519Z,100704.09
2023-09-23T19:50:44.153Z,100707.22
2023-09-23T19:53:12.521Z,100713.19
2023-09-23T19:55:40.904Z,100710.38
2023-09-23T19:58:08.196Z,100713.19
2023-09-23T20:00:38.176Z,100717.13
2023-09-23T20:03:05.684Z,100725.19
2023-09-23T20:05:33.106Z,100737.88
2023-09-23T20:07:59.631Z,100727.94
2023-09-23T20:10:27.985Z,100723.16
2023-09-23T20:12:54.496Z,100724.81
2023-09-23T20:15:22.839Z,100716.41
2023-09-23T20:17:50.210Z,100716.75
2023-09-23T20:20:18.666Z,100728.28
2023-09-23T20:22:47.097Z,100735.44
2023-09-23T20:25:15.453Z,100748.22
2023-09-23T20:27:42.726Z,100757.75
2023-09-23T20:30:09.326Z,100761.78
2023-09-23T20:32:39.668Z,100763.34
2023-09-23T20:35:07.209Z,100760.97
2023-09-23T20:37:35.545Z,100754.63
2023-09-23T20:40:02.039Z,100746.63
2023-09-23T20:42:29.329Z,100747.47
2023-09-23T20:44:55.906Z,100764.69
2023-09-23T20:47:22.486Z,100766.22
2023-09-23T20:49:50.905Z,100766.25
2023-09-23T20:52:17.419Z,100764.63
2023-09-23T20:54:46.673Z,100765.41
2023-09-23T20:57:13.129Z,100764.22
2023-09-23T20:59:39.620Z,100767.41
2023-09-23T21:02:06.162Z,100768.19
2023-09-23T21:04:33.607Z,100770.19
2023-09-23T21:07:00.173Z,100768.25
2023-09-23T21:09:26.718Z,100765.78
2023-09-23T21:11:53.255Z,100771.44
2023-09-23T21:14:19.818Z,100763.81
2023-09-23T21:19:31.391Z,100762.56
2023-09-23T21:21:57.891Z,100760.25
2023-09-23T21:24:24.371Z,100761.88
2023-09-23T21:26:50.879Z,100759.06
2023-09-23T21:29:18.255Z,100757.50
2023-09-23T21:34:31.290Z,100758.63
2023-09-23T21:36:57.776Z,100765.47
2023-09-23T21:39:25.094Z,100766.28
2023-09-23T21:41:51.610Z,100775.44
2023-09-23T21:44:18.087Z,100779.81
2023-09-23T21:49:28.568Z,100775.34
2023-09-23T21:51:55.871Z,100788.03
2023-09-23T21:54:22.386Z,100777.28
2023-09-23T21:56:52.533Z,100782.13
2023-09-23T21:59:20.066Z,100791.66
2023-09-23T22:04:33.810Z,100800.84
2023-09-23T22:07:01.182Z,100805.59
2023-09-23T22:09:27.712Z,100805.59
2023-09-23T22:11:56.140Z,100804.88
2023-09-23T22:14:22.741Z,100811.22
2023-09-23T22:19:33.406Z,100810.06
2023-09-23T22:21:59.902Z,100817.56
2023-09-23T22:24:26.354Z,100824.81
2023-09-23T22:26:52.809Z,100833.13
2023-09-23T22:29:20.240Z,100848.66
2023-09-23T22:34:30.813Z,100859.38
2023-09-23T22:36:57.317Z,100861.78
2023-09-23T22:39:23.737Z,100872.91
2023-09-23T22:41:51.135Z,100871.72
2023-09-23T22:44:17.668Z,100872.53
2023-09-23T22:49:28.953Z,100895.59
2023-09-23T22:51:55.383Z,100886.47
2023-09-23T22:54:21.782Z,100879.69
2023-09-23T22:56:48.206Z,100872.88
2023-09-23T22:59:15.494Z,100856.59
2023-09-23T23:04:25.977Z,100857.41
2023-09-23T23:06:52.515Z,100859.00
2023-09-23T23:09:18.933Z,100843.13
2023-09-23T23:11:45.448Z,100831.16
2023-09-23T23:14:11.893Z,100841.13
2023-09-23T23:19:22.263Z,100851.47
2023-09-23T23:21:48.687Z,100851.84
2023-09-23T23:24:15.965Z,100848.69
2023-09-23T23:26:42.394Z,100845.09
2023-09-23T23:29:09.741Z,100855.41
2023-09-23T23:34:19.716Z,100884.09
2023-09-23T23:36:46.148Z,100881.28
2023-09-23T23:39:12.562Z,100896.00
2023-09-23T23:41:41.801Z,100899.97
2023-09-23T23:44:08.209Z,100897.97
2023-09-23T23:46:34.628Z,100889.66
2023-09-23T23:49:01.154Z,100896.41
2023-09-23T23:51:27.640Z,100892.84
2023-09-23T23:53:54.050Z,100904.75
2023-09-23T23:56:21.413Z,100901.19
2023-09-23T23:58:48.981Z,100904.38
